Time;durP1;ratioP1;P1;durP2;ratioP2;P2;SDS_P1;SDS_P2;PMS_P1;PMS_P2;Temp;Humidity;BMP_temperature;BMP_pressure;BME280_temperature;BME280_humidity;BME280_pressure;Samples;Min_cycle;Max_cycle;Signal;HPM_P1;HPM_P2
2021/04/13 00:01:21;;;;;;;18.83;17.20;;;2.50;99.90;;;;;;4992257;28;20521;-68
2021/04/13 00:03:49;;;;;;;20.03;18.23;;;2.60;99.90;;;;;;4992044;28;20530;-69
2021/04/13 00:06:20;;;;;;;19.90;18.20;;;2.60;99.90;;;;;;4992175;28;20454;-69
2021/04/13 00:08:50;;;;;;;18.23;17.03;;;2.50;99.90;;;;;;4992099;28;20463;-68
2021/04/13 00:11:16;;;;;;;18.33;16.97;;;2.40;99.90;;;;;;4992149;28;20452;-68
2021/04/13 00:13:43;;;;;;;18.50;16.97;;;2.40;99.90;;;;;;4992072;28;20450;-68
2021/04/13 00:16:13;;;;;;;18.07;16.67;;;2.40;99.90;;;;;;4992074;28;20447;-68
2021/04/13 00:18:42;;;;;;;18.17;16.67;;;2.40;99.90;;;;;;4991730;28;20457;-68
2021/04/13 00:21:14;;;;;;;17.70;16.40;;;2.40;99.90;;;;;;4992030;28;20794;-68
2021/04/13 00:23:42;;;;;;;19.23;16.00;;;2.30;99.90;;;;;;4991967;28;20498;-68
2021/04/13 00:26:10;;;;;;;17.13;15.90;;;2.30;99.90;;;;;;4992047;28;20508;-68
2021/04/13 00:28:44;;;;;;;17.63;16.30;;;2.20;99.90;;;;;;4992170;28;20448;-68
2021/04/13 00:31:19;;;;;;;18.27;16.73;;;2.20;99.90;;;;;;4991772;28;20461;-68
2021/04/13 00:33:46;;;;;;;17.00;15.70;;;2.10;99.90;;;;;;4991847;28;20457;-68
2021/04/13 00:36:16;;;;;;;17.60;16.30;;;2.00;99.90;;;;;;4992018;28;20462;-68
2021/04/13 00:38:44;;;;;;;19.70;18.10;;;1.90;99.90;;;;;;4991899;28;20542;-68
2021/04/13 00:41:17;;;;;;;18.43;17.00;;;1.90;99.90;;;;;;4991782;28;20462;-68
2021/04/13 00:43:48;;;;;;;17.03;15.90;;;1.90;99.90;;;;;;4991783;28;20493;-68
2021/04/13 00:46:22;;;;;;;18.63;16.93;;;1.90;99.90;;;;;;4991516;28;20446;-69
2021/04/13 00:48:49;;;;;;;18.63;17.13;;;1.80;99.90;;;;;;4991556;28;20453;-68
2021/04/13 00:51:22;;;;;;;18.10;16.80;;;1.80;99.90;;;;;;4991487;28;20508;-68
2021/04/13 00:53:54;;;;;;;19.83;18.43;;;1.70;99.90;;;;;;4991716;28;20461;-68
2021/04/13 00:56:21;;;;;;;18.70;17.23;;;1.60;99.90;;;;;;4990561;28;20459;-68
2021/04/13 00:58:55;;;;;;;19.80;18.00;;;1.70;99.90;;;;;;4972908;28;20465;-68
2021/04/13 01:01:24;;;;;;;19.43;17.93;;;1.80;99.90;;;;;;4976149;28;20453;-68
2021/04/13 01:03:54;;;;;;;19.97;18.57;;;1.70;99.90;;;;;;4976074;28;20493;-68
2021/04/13 01:06:24;;;;;;;19.97;18.33;;;1.80;99.90;;;;;;4975858;28;20521;-68
2021/04/13 01:09:09;;;;;;;19.43;18.03;;;1.80;99.90;;;;;;4975747;28;21014;-68
2021/04/13 01:11:41;;;;;;;20.37;18.77;;;1.80;99.90;;;;;;4975939;28;20451;-68
2021/04/13 01:14:09;;;;;;;19.83;18.07;;;1.80;99.90;;;;;;4975815;28;20455;-68
2021/04/13 01:16:39;;;;;;;19.93;18.43;;;1.80;99.90;;;;;;4975671;28;20500;-68
2021/04/13 01:19:14;;;;;;;20.67;18.97;;;1.90;99.90;;;;;;4975908;28;20486;-69
2021/04/13 01:21:49;;;;;;;19.77;18.30;;;2.00;99.90;;;;;;4975694;28;20497;-68
2021/04/13 01:24:22;;;;;;;19.63;18.17;;;1.90;99.90;;;;;;4975350;28;20491;-68
2021/04/13 01:26:51;;;;;;;20.50;18.70;;;2.00;99.90;;;;;;4975585;28;20499;-68
2021/04/13 01:29:20;;;;;;;19.60;18.17;;;2.00;99.90;;;;;;4975388;28;20459;-68
2021/04/13 01:31:53;;;;;;;20.73;19.03;;;1.90;99.90;;;;;;4975467;28;20459;-68
2021/04/13 01:34:26;;;;;;;18.40;16.90;;;1.90;99.90;;;;;;4975386;28;20450;-68
2021/04/13 01:37:16;;;;;;;19.27;17.77;;;1.90;99.90;;;;;;4975321;28;20453;-68
2021/04/13 01:39:52;;;;;;;19.77;18.27;;;1.90;99.90;;;;;;4975594;28;20453;-68
2021/04/13 01:42:20;;;;;;;21.80;20.00;;;1.90;99.90;;;;;;4975395;28;20455;-71
2021/04/13 01:44:51;;;;;;;21.33;19.43;;;1.90;99.90;;;;;;4975211;28;20495;-69
2021/04/13 01:47:21;;;;;;;21.40;19.70;;;1.90;99.90;;;;;;4975315;28;20871;-69
2021/04/13 01:49:51;;;;;;;22.00;20.20;;;1.90;99.90;;;;;;4988960;28;20500;-69
2021/04/13 01:52:24;;;;;;;20.77;19.00;;;1.90;99.90;;;;;;4975480;28;20497;-69
2021/04/13 01:54:51;;;;;;;19.90;18.30;;;1.90;99.90;;;;;;4974277;28;20457;-69
2021/04/13 01:57:26;;;;;;;18.20;16.80;;;1.90;99.90;;;;;;4982656;28;20511;-69
2021/04/13 01:59:54;;;;;;;20.83;19.10;;;1.80;99.90;;;;;;4975112;28;20460;-69
2021/04/13 02:02:27;;;;;;;21.07;19.27;;;1.80;99.90;;;;;;4975267;28;20455;-69
2021/04/13 02:04:58;;;;;;;21.10;19.27;;;1.80;99.90;;;;;;4974972;28;20522;-68
2021/04/13 02:07:38;;;;;;;22.17;20.47;;;1.90;99.90;;;;;;4975144;28;20448;-69
2021/04/13 02:10:14;;;;;;;23.67;21.37;;;1.80;99.90;;;;;;4974392;28;20459;-69
2021/04/13 02:12:45;;;;;;;23.63;21.83;;;1.80;99.90;;;;;;4974877;28;20920;-69
2021/04/13 02:15:22;;;;;;;22.63;20.60;;;1.80;99.90;;;;;;4974743;28;20463;-69
2021/04/13 02:17:53;;;;;;;26.40;20.97;;;1.70;99.90;;;;;;4974368;28;20483;-69
2021/04/13 02:20:26;;;;;;;24.50;22.40;;;1.70;99.90;;;;;;4974949;28;20448;-69
2021/04/13 02:22:53;;;;;;;25.17;22.97;;;1.60;99.90;;;;;;4974693;28;20452;-69
2021/04/13 02:25:25;;;;;;;24.13;22.27;;;1.60;99.90;;;;;;4974333;28;20888;-69
2021/04/13 02:27:53;;;;;;;24.90;22.90;;;1.70;99.90;;;;;;4974681;28;20466;-69
2021/04/13 02:30:29;;;;;;;22.30;20.30;;;1.70;99.90;;;;;;4974502;28;20510;-69
2021/04/13 02:32:57;;;;;;;24.57;22.47;;;1.60;99.90;;;;;;4974356;28;20937;-69
2021/04/13 02:35:26;;;;;;;25.03;22.87;;;1.50;99.90;;;;;;4974519;28;20451;-69
2021/04/13 02:37:54;;;;;;;24.87;22.60;;;1.40;99.90;;;;;;4974681;28;20450;-68
2021/04/13 02:40:26;;;;;;;25.87;23.63;;;1.40;99.90;;;;;;4974435;28;20458;-68
2021/04/13 02:42:55;;;;;;;26.23;24.00;;;1.30;99.90;;;;;;4974698;28;20480;-68
2021/04/13 02:45:30;;;;;;;25.53;23.30;;;1.30;99.90;;;;;;4974076;28;20524;-69
2021/04/13 02:48:03;;;;;;;27.23;24.60;;;1.30;99.90;;;;;;4974239;28;20462;-69
2021/04/13 02:50:31;;;;;;;23.30;21.40;;;1.30;99.90;;;;;;4973577;28;20532;-68
2021/04/13 02:53:03;;;;;;;24.90;22.70;;;1.30;99.90;;;;;;4974365;28;20440;-69
2021/04/13 02:55:35;;;;;;;25.43;23.13;;;1.40;99.90;;;;;;4976015;28;20778;-68
2021/04/13 02:58:04;;;;;;;26.17;23.73;;;1.30;99.90;;;;;;4979105;28;20519;-69
2021/04/13 03:00:34;;;;;;;25.70;23.23;;;1.30;99.90;;;;;;4973751;28;20535;-68
2021/04/13 03:03:05;;;;;;;27.00;24.30;;;1.30;99.90;;;;;;4973764;28;20455;-68
2021/04/13 03:05:31;;;;;;;28.60;25.93;;;1.30;99.90;;;;;;4973557;28;20445;-69
2021/04/13 03:08:01;;;;;;;28.47;25.80;;;1.30;99.90;;;;;;4973946;28;20462;-68
2021/04/13 03:10:31;;;;;;;26.47;24.30;;;1.20;99.90;;;;;;4973761;28;20454;-69
2021/04/13 03:12:59;;;;;;;30.63;27.70;;;1.30;99.90;;;;;;4973627;28;20520;-68
2021/04/13 03:15:28;;;;;;;28.93;26.33;;;1.50;99.90;;;;;;4973602;28;20792;-69
2021/04/13 03:17:58;;;;;;;28.27;25.70;;;1.70;99.90;;;;;;4973890;28;20450;-69
2021/04/13 03:20:27;;;;;;;27.20;24.90;;;1.70;99.90;;;;;;4973530;28;20446;-69
2021/04/13 03:22:57;;;;;;;25.17;23.07;;;1.80;99.90;;;;;;4972905;28;20455;-69
2021/04/13 03:25:26;;;;;;;26.90;24.57;;;1.80;99.90;;;;;;4973519;28;20846;-68
2021/04/13 03:27:53;;;;;;;28.93;26.13;;;1.80;99.90;;;;;;4973402;28;20769;-69
2021/04/13 03:30:24;;;;;;;27.73;25.20;;;1.70;99.90;;;;;;4973271;28;20961;-68
2021/04/13 03:32:53;;;;;;;26.93;24.63;;;1.80;99.90;;;;;;4973473;28;20456;-68
2021/04/13 03:35:22;;;;;;;25.53;23.10;;;1.80;99.90;;;;;;4973208;28;20437;-68
2021/04/13 03:37:51;;;;;;;25.87;23.80;;;1.80;99.90;;;;;;4973233;28;20454;-68
2021/04/13 03:40:21;;;;;;;29.67;27.00;;;1.80;99.90;;;;;;4973090;28;21005;-68
2021/04/13 03:42:57;;;;;;;26.53;24.33;;;1.70;99.90;;;;;;4972048;28;20512;-69
2021/04/13 03:45:25;;;;;;;27.57;25.17;;;1.60;99.90;;;;;;4973023;28;20490;-69
2021/04/13 03:47:52;;;;;;;27.20;24.70;;;1.60;99.90;;;;;;4973027;28;20455;-69
2021/04/13 03:50:23;;;;;;;26.70;24.30;;;1.50;99.90;;;;;;4973272;28;20503;-69
2021/04/13 03:53:00;;;;;;;25.53;23.03;;;1.50;99.90;;;;;;4972904;28;20452;-68
2021/04/13 03:55:27;;;;;;;25.93;23.63;;;1.40;99.90;;;;;;4974375;28;20447;-68
2021/04/13 03:57:53;;;;;;;25.60;23.30;;;1.40;99.90;;;;;;4979014;28;20863;-67
2021/04/13 04:00:21;;;;;;;27.57;25.13;;;1.40;99.90;;;;;;4972455;28;20945;-68
2021/04/13 04:02:49;;;;;;;26.20;24.13;;;1.40;99.90;;;;;;4972593;28;20448;-68
2021/04/13 04:05:18;;;;;;;27.30;24.80;;;1.40;99.90;;;;;;4972555;28;20492;-69
2021/04/13 04:07:51;;;;;;;25.37;23.23;;;1.30;99.90;;;;;;4972747;28;20462;-67
2021/04/13 04:10:35;;;;;;;25.97;23.87;;;1.20;99.90;;;;;;4972732;28;20550;-67
2021/04/13 04:13:04;;;;;;;27.80;25.50;;;1.10;99.90;;;;;;4972487;28;20480;-68
2021/04/13 04:15:37;;;;;;;24.97;22.83;;;1.00;99.90;;;;;;4972424;28;20448;-68
2021/04/13 04:18:12;;;;;;;29.43;26.33;;;1.00;99.90;;;;;;4972277;28;20471;-69
2021/04/13 04:20:39;;;;;;;26.20;23.87;;;1.00;99.90;;;;;;4972682;28;20470;-69
2021/04/13 04:23:05;;;;;;;24.93;22.90;;;0.80;99.90;;;;;;4972529;28;20866;-69
2021/04/13 04:25:36;;;;;;;29.37;26.37;;;0.80;99.90;;;;;;4972446;28;20943;-69
2021/04/13 04:28:11;;;;;;;28.60;25.90;;;0.80;99.90;;;;;;4972493;28;20448;-69
2021/04/13 04:30:38;;;;;;;29.47;26.37;;;0.80;99.90;;;;;;4972169;28;20453;-68
2021/04/13 04:33:06;;;;;;;30.00;27.00;;;0.80;99.90;;;;;;4972262;28;20458;-69
2021/04/13 04:35:39;;;;;;;29.97;26.90;;;0.80;99.90;;;;;;4972150;28;20475;-68
2021/04/13 04:38:23;;;;;;;28.73;25.93;;;0.70;99.90;;;;;;4972150;28;20464;-67
2021/04/13 04:41:01;;;;;;;27.17;24.90;;;0.70;99.90;;;;;;4972166;28;20449;-67
2021/04/13 04:43:53;;;;;;;26.40;24.23;;;0.70;99.90;;;;;;4971686;28;20456;-68
2021/04/13 04:46:39;;;;;;;26.87;24.47;;;0.70;99.90;;;;;;4985938;28;20970;-68
2021/04/13 04:49:08;;;;;;;26.97;24.07;;;0.60;99.90;;;;;;4989326;28;20816;-69
2021/04/13 04:51:34;;;;;;;34.30;28.07;;;0.70;99.90;;;;;;4987794;28;20520;-69
2021/04/13 04:54:01;;;;;;;27.87;25.37;;;0.70;99.90;;;;;;4990338;28;20502;-67
2021/04/13 04:56:28;;;;;;;28.97;26.07;;;0.70;99.90;;;;;;4989640;28;20557;-67
2021/04/13 04:58:54;;;;;;;27.13;24.73;;;0.70;99.90;;;;;;4987893;28;20450;-68
2021/04/13 05:01:20;;;;;;;27.07;24.30;;;0.70;99.90;;;;;;4989947;28;20454;-67
2021/04/13 05:03:46;;;;;;;25.37;22.73;;;0.70;99.90;;;;;;4989957;28;20824;-68
2021/04/13 05:06:14;;;;;;;26.17;23.90;;;0.70;99.90;;;;;;4990400;28;20806;-67
2021/04/13 05:08:41;;;;;;;26.10;23.40;;;0.70;99.90;;;;;;4989824;28;20469;-67
2021/04/13 05:11:07;;;;;;;24.60;22.30;;;0.70;99.90;;;;;;4989920;28;20459;-67
2021/04/13 05:13:33;;;;;;;24.30;22.33;;;0.70;99.90;;;;;;4989602;28;20465;-67
2021/04/13 05:16:00;;;;;;;26.87;24.60;;;0.80;99.90;;;;;;4989782;28;20480;-68
2021/04/13 05:18:26;;;;;;;26.30;23.70;;;0.80;99.90;;;;;;4990175;28;20804;-68
2021/04/13 05:20:53;;;;;;;25.27;23.17;;;0.90;99.90;;;;;;4987017;28;20443;-68
2021/04/13 05:23:20;;;;;;;24.47;22.50;;;1.00;99.90;;;;;;4989601;28;20460;-68
2021/04/13 05:25:47;;;;;;;23.67;21.70;;;1.00;99.90;;;;;;4989810;28;20451;-68
2021/04/13 05:28:14;;;;;;;25.27;23.37;;;1.10;99.90;;;;;;4987238;28;20445;-67
2021/04/13 05:30:40;;;;;;;25.50;23.40;;;1.20;99.90;;;;;;4989713;28;20463;-68
2021/04/13 05:33:07;;;;;;;28.87;26.40;;;1.40;99.90;;;;;;4990313;28;20451;-68
2021/04/13 05:35:33;;;;;;;31.90;28.97;;;1.80;99.90;;;;;;4987046;28;20455;-68
2021/04/13 05:38:02;;;;;;;30.87;28.00;;;2.40;99.90;;;;;;4989737;28;20470;-69
2021/04/13 05:40:33;;;;;;;31.90;29.07;;;3.00;99.90;;;;;;4989640;28;20878;-70
2021/04/13 05:43:00;;;;;;;30.10;27.40;;;3.20;99.90;;;;;;4989888;28;20454;-70
2021/04/13 05:45:29;;;;;;;29.27;26.57;;;3.50;99.90;;;;;;4989759;28;20487;-71
2021/04/13 05:47:57;;;;;;;26.97;24.73;;;3.90;99.90;;;;;;4991099;28;20489;-70
2021/04/13 05:50:27;;;;;;;22.90;20.90;;;4.20;99.90;;;;;;4993847;28;20483;-71
2021/04/13 05:52:53;;;;;;;21.27;19.13;;;4.50;99.90;;;;;;4993132;28;20446;-70
2021/04/13 05:55:19;;;;;;;19.07;17.50;;;4.80;99.90;;;;;;4992970;28;20828;-70
2021/04/13 05:57:49;;;;;;;17.77;16.27;;;5.40;99.90;;;;;;4990611;28;20463;-70
2021/04/13 06:00:17;;;;;;;17.83;16.53;;;5.90;99.90;;;;;;4990683;28;20453;-70
2021/04/13 06:02:44;;;;;;;17.00;15.80;;;6.50;99.90;;;;;;4993386;28;20790;-71
2021/04/13 06:05:12;;;;;;;16.63;15.53;;;7.10;99.90;;;;;;4992823;28;20482;-70
2021/04/13 06:07:38;;;;;;;18.20;16.70;;;7.50;99.90;;;;;;4992973;28;20960;-70
2021/04/13 06:10:07;;;;;;;15.80;14.30;;;7.70;99.90;;;;;;4992983;28;20442;-73
2021/04/13 06:12:34;;;;;;;16.53;15.23;;;8.00;99.90;;;;;;4990433;28;21043;-73
2021/04/13 06:15:01;;;;;;;17.50;16.40;;;8.20;99.90;;;;;;4993013;28;20455;-72
2021/04/13 06:17:27;;;;;;;17.70;16.40;;;8.30;99.90;;;;;;4994276;28;20458;-72
2021/04/13 06:19:53;;;;;;;16.07;14.90;;;8.60;99.90;;;;;;4994280;28;20522;-70
2021/04/13 06:22:19;;;;;;;18.23;16.63;;;8.60;99.90;;;;;;4994152;28;20566;-71
2021/04/13 06:24:45;;;;;;;16.70;15.60;;;8.50;99.90;;;;;;4993651;28;20494;-70
2021/04/13 06:27:12;;;;;;;16.03;14.93;;;8.30;99.90;;;;;;4993935;28;20516;-73
2021/04/13 06:29:38;;;;;;;16.23;15.30;;;8.70;99.90;;;;;;4993789;28;20458;-71
2021/04/13 06:32:07;;;;;;;16.13;15.13;;;8.90;99.70;;;;;;4994012;28;20458;-72
2021/04/13 06:34:33;;;;;;;16.40;15.33;;;9.10;99.60;;;;;;4993407;28;20455;-73
2021/04/13 06:37:02;;;;;;;16.60;15.60;;;9.40;98.50;;;;;;4992100;28;20458;-73
2021/04/13 06:39:28;;;;;;;16.10;15.20;;;9.50;98.90;;;;;;4991025;28;20479;-72
2021/04/13 06:42:04;;;;;;;16.27;15.27;;;9.50;98.40;;;;;;4993697;28;20461;-74
2021/04/13 06:44:54;;;;;;;17.70;16.57;;;9.50;97.10;;;;;;4993171;28;21092;-72
2021/04/13 06:47:35;;;;;;;17.87;16.37;;;8.90;97.50;;;;;;4993656;28;20449;-72
2021/04/13 06:50:15;;;;;;;18.40;15.37;;;8.30;98.80;;;;;;4993623;28;20470;-73
2021/04/13 06:52:53;;;;;;;16.40;15.13;;;8.20;99.70;;;;;;4974129;28;20502;-72
2021/04/13 06:55:36;;;;;;;18.63;17.30;;;8.20;99.90;;;;;;4974148;28;20447;-72
2021/04/13 06:58:11;;;;;;;17.60;16.30;;;8.50;99.90;;;;;;4961769;28;20452;-72
2021/04/13 07:00:54;;;;;;;17.43;16.23;;;8.90;98.50;;;;;;4954721;29;20448;-72
2021/04/13 07:03:31;;;;;;;18.20;16.70;;;9.40;98.30;;;;;;4954678;29;20444;-72
2021/04/13 07:06:07;;;;;;;17.10;15.80;;;10.00;96.70;;;;;;4954606;28;20484;-72
2021/04/13 07:08:38;;;;;;;18.83;17.50;;;10.40;94.60;;;;;;4954486;29;20464;-72
2021/04/13 07:11:17;;;;;;;16.73;15.83;;;10.80;93.90;;;;;;4954503;29;20468;-72
2021/04/13 07:13:51;;;;;;;18.73;17.50;;;11.20;92.90;;;;;;4954355;29;20448;-73
2021/04/13 07:16:24;;;;;;;17.80;16.37;;;12.00;92.10;;;;;;4954198;29;20479;-72
2021/04/13 07:18:58;;;;;;;18.30;17.10;;;13.00;89.00;;;;;;4954112;29;20456;-72
2021/04/13 07:21:30;;;;;;;19.00;17.60;;;12.80;87.30;;;;;;4954379;29;20456;-73
2021/04/13 07:24:00;;;;;;;18.93;17.60;;;13.00;86.90;;;;;;4954227;29;20494;-73
2021/04/13 07:26:31;;;;;;;18.73;17.57;;;13.10;84.90;;;;;;4954148;29;20947;-73
2021/04/13 07:29:08;;;;;;;19.00;17.90;;;13.40;84.80;;;;;;4954067;29;20460;-73
2021/04/13 07:31:39;;;;;;;19.50;18.00;;;13.80;81.70;;;;;;4954146;28;20555;-72
2021/04/13 07:34:07;;;;;;;20.97;19.20;;;13.90;80.20;;;;;;4954155;29;20452;-72
2021/04/13 07:36:39;;;;;;;19.17;17.87;;;13.90;80.90;;;;;;4954065;29;20516;-73
2021/04/13 07:39:07;;;;;;;19.77;18.47;;;14.30;79.10;;;;;;4953981;28;20554;-72
2021/04/13 07:41:43;;;;;;;20.50;19.10;;;14.10;77.40;;;;;;4953886;29;20460;-72
2021/04/13 07:44:15;;;;;;;18.60;17.43;;;14.10;78.10;;;;;;4953987;29;20550;-72
2021/04/13 07:47:03;;;;;;;19.50;18.23;;;13.90;76.70;;;;;;4954002;28;20455;-72
2021/04/13 07:49:33;;;;;;;18.77;17.70;;;13.30;78.50;;;;;;4953795;29;20821;-71
2021/04/13 07:52:11;;;;;;;20.10;18.50;;;13.10;78.60;;;;;;4967795;28;20491;-72
2021/04/13 07:54:49;;;;;;;19.87;18.30;;;13.70;79.50;;;;;;4973040;28;20456;-71
2021/04/13 07:57:20;;;;;;;18.70;17.40;;;13.60;77.30;;;;;;4982919;28;20530;-72
2021/04/13 08:00:01;;;;;;;19.00;17.90;;;13.50;76.80;;;;;;4972758;28;20588;-72
2021/04/13 08:02:28;;;;;;;19.07;18.00;;;12.80;77.20;;;;;;4972786;28;20459;-71
2021/04/13 08:04:58;;;;;;;19.83;18.33;;;11.90;80.00;;;;;;4972789;28;20495;-72
2021/04/13 08:07:29;;;;;;;20.03;18.10;;;12.00;81.80;;;;;;4972857;28;20459;-72
2021/04/13 08:10:16;;;;;;;18.07;16.90;;;13.20;78.50;;;;;;4972510;28;20459;-72
2021/04/13 08:12:53;;;;;;;20.00;18.60;;;13.90;76.00;;;;;;4972610;28;20459;-72
2021/04/13 08:15:39;;;;;;;19.17;17.67;;;12.70;76.20;;;;;;4972621;28;20451;-71
2021/04/13 08:18:10;;;;;;;19.03;17.73;;;11.70;78.40;;;;;;4972649;28;20462;-71
2021/04/13 08:20:39;;;;;;;20.07;18.77;;;11.00;83.80;;;;;;4972370;28;20873;-71
2021/04/13 08:23:07;;;;;;;21.17;19.77;;;10.80;88.60;;;;;;4972583;28;20462;-72
2021/04/13 08:25:38;;;;;;;20.90;19.30;;;10.30;90.00;;;;;;4972423;28;20974;-71
2021/04/13 08:28:18;;;;;;;20.60;19.00;;;10.00;91.10;;;;;;4972559;28;20924;-71
2021/04/13 08:32:49;;;;;;;22.40;20.80;;;10.00;92.10;;;;;;4972383;28;20459;-72
2021/04/13 08:34:00;;;;;;;20.67;18.90;;;10.30;92.40;;;;;;4972401;28;20821;-71
2021/04/13 08:36:33;;;;;;;20.67;19.27;;;10.20;91.50;;;;;;4972459;28;21125;-71
2021/04/13 08:39:04;;;;;;;19.90;18.57;;;10.00;91.30;;;;;;4972397;28;20969;-71
2021/04/13 08:41:36;;;;;;;19.50;18.20;;;9.90;92.50;;;;;;4972480;28;20448;-71
2021/04/13 08:44:17;;;;;;;21.00;19.20;;;10.00;91.90;;;;;;4972271;28;20491;-72
2021/04/13 08:46:51;;;;;;;18.37;16.63;;;10.40;90.70;;;;;;4972388;28;20453;-72
2021/04/13 08:49:48;;;;;;;17.27;16.37;;;11.20;86.30;;;;;;4972309;28;20477;-78
2021/04/13 08:52:21;;;;;;;17.00;15.90;;;12.00;82.60;;;;;;4972055;28;20479;-73
2021/04/13 08:54:50;;;;;;;18.40;17.30;;;12.90;80.30;;;;;;4972317;28;20452;-71
2021/04/13 08:57:32;;;;;;;19.77;18.43;;;13.50;75.20;;;;;;4982251;28;20554;-71
2021/04/13 09:00:02;;;;;;;19.97;18.40;;;12.20;77.90;;;;;;4972403;28;20455;-72
2021/04/13 09:02:31;;;;;;;19.47;18.10;;;13.30;75.50;;;;;;4972256;28;20451;-72
2021/04/13 09:05:07;;;;;;;16.73;15.83;;;13.50;73.70;;;;;;4972110;28;20492;-73
2021/04/13 09:07:50;;;;;;;19.23;18.03;;;13.50;74.20;;;;;;4971829;28;20474;-73
2021/04/13 09:10:28;;;;;;;17.83;16.40;;;13.80;72.60;;;;;;4972007;28;20949;-72
2021/04/13 09:13:27;;;;;;;18.33;17.17;;;15.00;68.50;;;;;;4972164;28;20470;-71
2021/04/13 09:16:11;;;;;;;17.37;16.17;;;14.50;66.40;;;;;;4972037;28;20447;-72
2021/04/13 09:18:57;;;;;;;17.73;16.47;;;13.20;68.40;;;;;;4972269;28;20451;-73
2021/04/13 09:21:43;;;;;;;17.73;16.63;;;13.10;70.80;;;;;;4974244;28;20866;-73
2021/04/13 09:24:18;;;;;;;17.77;16.27;;;14.20;67.30;;;;;;4975573;28;20498;-72
2021/04/13 09:27:02;;;;;;;17.23;16.33;;;15.20;63.30;;;;;;4975578;28;20546;-72
2021/04/13 09:29:36;;;;;;;17.33;16.43;;;15.10;60.90;;;;;;4975306;28;20478;-73
2021/04/13 09:32:04;;;;;;;16.50;15.60;;;15.60;59.60;;;;;;4975388;28;21076;-71
2021/04/13 09:34:43;;;;;;;17.57;16.33;;;15.30;57.10;;;;;;4975404;28;20447;-71
2021/04/13 09:37:23;;;;;;;16.13;15.23;;;13.60;59.50;;;;;;4975344;28;20455;-72
2021/04/13 09:40:17;;;;;;;16.83;15.83;;;12.70;61.70;;;;;;4975418;28;20470;-72
2021/04/13 09:43:22;;;;;;;16.30;15.40;;;13.60;62.60;;;;;;4962153;28;20468;-72
2021/04/13 09:46:00;;;;;;;17.00;15.93;;;14.50;56.90;;;;;;4956750;28;20849;-72
2021/04/13 09:48:55;;;;;;;17.47;16.43;;;13.70;58.90;;;;;;4975495;28;20807;-72
2021/04/13 09:51:27;;;;;;;15.50;14.80;;;14.10;58.20;;;;;;4975072;28;20826;-72
2021/04/13 09:54:09;;;;;;;15.00;14.10;;;14.70;54.40;;;;;;4975119;28;21016;-72
2021/04/13 09:57:14;;;;;;;16.63;15.73;;;16.30;52.60;;;;;;4984957;28;20454;-72
2021/04/13 10:00:29;;;;;;;17.77;16.70;;;17.70;50.10;;;;;;4974993;28;20455;-71
2021/04/13 10:03:17;;;;;;;16.57;15.30;;;19.00;48.30;;;;;;4896478;29;20450;-71
2021/04/13 10:05:47;;;;;;;15.33;14.60;;;19.40;46.60;;;;;;4974964;28;20491;-70
2021/04/13 10:08:21;;;;;;;15.53;14.73;;;18.20;42.70;;;;;;4974532;28;20487;-73
2021/04/13 10:11:03;;;;;;;15.73;14.87;;;16.40;44.60;;;;;;4974758;28;20460;-72
2021/04/13 10:14:00;;;;;;;17.13;15.90;;;16.80;45.30;;;;;;4974917;28;20459;-72
2021/04/13 10:16:32;;;;;;;16.80;15.80;;;18.00;44.00;;;;;;4973976;28;20452;-72
2021/04/13 10:19:24;;;;;;;17.13;16.10;;;19.30;43.80;;;;;;4974679;28;20460;-72
2021/04/13 10:22:40;;;;;;;17.43;16.50;;;19.00;41.50;;;;;;4974591;28;20513;-72
2021/04/13 10:25:50;;;;;;;15.77;15.00;;;17.20;42.30;;;;;;4974558;28;20491;-72
2021/04/13 10:28:54;;;;;;;16.57;15.67;;;15.10;45.60;;;;;;4974231;28;20455;-71
2021/04/13 10:31:52;;;;;;;14.57;13.67;;;13.80;45.80;;;;;;4946064;28;20455;-71
2021/04/13 10:34:53;;;;;;;16.10;15.20;;;13.30;47.90;;;;;;4974501;28;20873;-71
2021/04/13 10:37:48;;;;;;;15.70;14.80;;;12.50;49.10;;;;;;4961943;28;20562;-71
2021/04/13 10:40:30;;;;;;;18.93;16.50;;;11.90;50.90;;;;;;4974028;28;20472;-71
2021/04/13 10:43:33;;;;;;;17.00;16.00;;;13.70;52.40;;;;;;4974341;28;20451;-71
2021/04/13 10:46:15;;;;;;;16.50;15.37;;;15.10;51.80;;;;;;4969426;28;21083;-71
2021/04/13 10:48:54;;;;;;;16.17;15.13;;;15.70;49.50;;;;;;4974188;28;20458;-71
2021/04/13 10:51:54;;;;;;;15.90;15.10;;;15.80;49.30;;;;;;4973880;28;20494;-71
2021/04/13 10:54:56;;;;;;;16.03;15.13;;;15.70;47.60;;;;;;4967804;28;20458;-71
2021/04/13 10:57:56;;;;;;;16.03;15.13;;;14.40;48.70;;;;;;4984025;28;20456;-71
2021/04/13 11:00:31;;;;;;;14.50;13.70;;;13.00;49.80;;;;;;4973968;28;20443;-71
2021/04/13 11:03:52;;;;;;;15.37;14.57;;;12.60;51.70;;;;;;4973818;28;20485;-71
2021/04/13 11:07:03;;;;;;;14.90;14.00;;;14.70;48.20;;;;;;4943388;28;20519;-71
2021/04/13 11:09:58;;;;;;;14.77;14.07;;;16.30;42.40;;;;;;4973804;28;20459;-72
2021/04/13 11:12:51;;;;;;;14.80;14.00;;;16.50;43.80;;;;;;4973741;28;20478;-71
2021/04/13 11:15:50;;;;;;;16.60;15.70;;;17.50;42.80;;;;;;4973604;28;20443;-71
2021/04/13 11:18:35;;;;;;;16.60;15.80;;;18.70;42.00;;;;;;4973686;28;20511;-71
2021/04/13 11:21:19;;;;;;;17.00;15.87;;;21.00;40.00;;;;;;4973603;28;21196;-71
2021/04/13 11:24:20;;;;;;;17.43;16.43;;;19.90;39.40;;;;;;4973667;28;20948;-71
2021/04/13 11:27:34;;;;;;;15.70;14.83;;;17.40;40.50;;;;;;4973557;28;20455;-70
2021/04/13 11:30:48;;;;;;;16.60;15.70;;;14.00;43.50;;;;;;4973327;28;20451;-71
2021/04/13 11:33:39;;;;;;;15.73;14.83;;;13.20;46.60;;;;;;4894844;29;20523;-71
2021/04/13 11:36:10;;;;;;;16.20;15.40;;;15.60;45.80;;;;;;4967258;28;20440;-71
2021/04/13 11:38:49;;;;;;;15.63;14.70;;;17.20;42.30;;;;;;4973270;28;20946;-71
2021/04/13 11:41:53;;;;;;;14.87;14.10;;;17.30;41.00;;;;;;4973347;28;20452;-71
2021/04/13 11:44:30;;;;;;;14.87;14.13;;;16.70;41.80;;;;;;4963186;28;20487;-71
2021/04/13 11:47:09;;;;;;;15.80;14.90;;;17.80;41.70;;;;;;4973093;28;20455;-71
2021/04/13 11:49:43;;;;;;;15.33;14.63;;;18.40;39.90;;;;;;4972947;28;20480;-71
2021/04/13 11:52:11;;;;;;;15.67;14.77;;;17.20;37.70;;;;;;4973049;28;20479;-71
2021/04/13 11:54:43;;;;;;;14.67;14.07;;;17.50;39.10;;;;;;4973063;28;20478;-72
2021/04/13 11:57:16;;;;;;;15.83;15.13;;;18.70;38.50;;;;;;4987946;28;20490;-71
2021/04/13 11:59:43;;;;;;;15.43;14.63;;;18.50;38.30;;;;;;4992142;28;20446;-71
2021/04/13 12:02:28;;;;;;;16.10;15.00;;;19.10;38.60;;;;;;4992153;28;20454;-72
2021/04/13 12:04:57;;;;;;;15.13;14.23;;;19.80;38.00;;;;;;4991966;28;20494;-72
2021/04/13 12:07:45;;;;;;;16.87;15.50;;;18.60;40.00;;;;;;4992004;28;20461;-71
2021/04/13 12:10:14;;;;;;;16.17;15.13;;;17.90;42.60;;;;;;4992111;28;20815;-71
2021/04/13 12:12:51;;;;;;;16.07;15.00;;;16.70;41.60;;;;;;4992052;28;20446;-71
2021/04/13 12:15:41;;;;;;;16.10;15.30;;;14.90;43.50;;;;;;4992035;28;20449;-71
2021/04/13 12:18:41;;;;;;;15.73;14.73;;;13.90;45.30;;;;;;4992153;28;20514;-71
2021/04/13 12:21:37;;;;;;;12.60;12.00;;;13.50;46.30;;;;;;4967642;28;20815;-71
2021/04/13 12:24:19;;;;;;;14.20;13.50;;;13.60;44.40;;;;;;4991805;28;20458;-71
2021/04/13 12:26:47;;;;;;;13.27;12.57;;;14.60;42.50;;;;;;4991980;28;21183;-71
2021/04/13 12:29:31;;;;;;;12.43;11.83;;;13.60;44.10;;;;;;4991807;28;20455;-71
2021/04/13 12:32:23;;;;;;;12.10;11.50;;;11.80;45.00;;;;;;4992063;28;20454;-71
2021/04/13 12:34:52;;;;;;;12.17;11.57;;;11.00;47.20;;;;;;4991823;28;20465;-71
2021/04/13 12:37:41;;;;;;;11.60;11.10;;;10.80;48.20;;;;;;4991862;28;20455;-70
2021/04/13 12:40:31;;;;;;;11.47;10.90;;;10.60;45.70;;;;;;4991959;28;20466;-71
2021/04/13 12:43:30;;;;;;;11.17;10.67;;;10.20;45.80;;;;;;4991696;28;20459;-70
2021/04/13 12:45:57;;;;;;;11.37;10.87;;;10.30;45.50;;;;;;4991682;28;21000;-69
2021/04/13 12:48:43;;;;;;;11.80;11.17;;;10.20;45.70;;;;;;4991969;28;20529;-70
2021/04/13 12:51:21;;;;;;;12.50;11.80;;;11.00;46.20;;;;;;4991781;28;20479;-70
2021/04/13 12:53:48;;;;;;;12.10;11.40;;;11.80;45.40;;;;;;4991745;28;20446;-71
2021/04/13 12:56:26;;;;;;;12.43;11.80;;;11.80;44.10;;;;;;4994906;28;20435;-71
2021/04/13 12:58:52;;;;;;;13.00;12.30;;;12.00;45.50;;;;;;4995570;28;20462;-71
2021/04/13 13:01:21;;;;;;;13.20;12.60;;;13.20;45.30;;;;;;4995552;28;20457;-70
2021/04/13 13:03:47;;;;;;;12.47;11.90;;;14.50;44.10;;;;;;4995490;28;20706;-71
2021/04/13 13:06:24;;;;;;;12.87;12.27;;;15.20;43.50;;;;;;4995230;28;20497;-71
2021/04/13 13:08:59;;;;;;;13.30;12.60;;;16.00;42.20;;;;;;4995509;28;20956;-72
2021/04/13 13:11:25;;;;;;;12.80;12.20;;;16.50;40.10;;;;;;4995470;28;20454;-72
2021/04/13 13:13:52;;;;;;;13.90;13.20;;;16.70;39.70;;;;;;4995370;28;20459;-71
2021/04/13 13:16:23;;;;;;;12.17;11.67;;;16.80;38.10;;;;;;4995264;28;20451;-71